冬季低气压里的羽田ILS RWY22与RWY23

去年夏天写过少见的羽田机场ILS RWY22和RWY23运用
今天日本海发生的强烈低气压横扫日本,南风大作,很有些小台风的感觉。

早上看看flightradar24,发现羽田22和23跑道的ILS再次被启用,
起飞为16L和16R。


支 持 本 站: 捐赠服务器等运维费用,感谢您的支持!

航图如下:

Twitter上有人发的照片可以看到迪斯尼乐园的位置,
确实不是在东京湾里转弯的。

从9点开始的METAR抄一下,现在气压还在下降,
不过风速已经小些,所以降落又改回通常的LDA RWY22和RWY23了。

RJTT 132200Z 19027KT 7000 -SHRA FEW010 BKN013 BKN020 18/17 Q1002 TEMPO 20032G42KT 3000 SHRA FEW005 BKN008
RJTT 132205Z 19027G40KT 4000 SHRA BR FEW009 BKN010 BKN020 18/17 Q1002 RMK 1CU009 5CU010 7CU020 A2959 2000W-NW
RJTT 132218Z 19026G36KT 2000 R34L///// R22/1800N R16L/1200VP1800D R23/P1800N +SHRA BR FEW006 BKN010 BKN020 17/17 Q1001 RMK 1ST006 5CU010 7CU020 A2958
RJTT 132230Z 20025G38KT 3500 +SHRA BR FEW006 SCT008 BKN010 18/17 Q1001 TEMPO 2000 +SHRA FEW005 BKN008
RJTT 132248Z 20023KT 4500 R34L///// R22/P1800N R16L/P1800N R23/1200VP1800D +SHRA BR FEW008 SCT010 BKN020 18/17 Q1001 RMK 1CU008 4CU010 6CU020 A2957
RJTT 132250Z 20024G35KT 4500 R34L///// R22/P1800N R16L/P1800N R23/0900VP1800D +SHRA BR FEW008 SCT010 BKN020 18/18 Q1001 RMK 1CU008 4CU010 6CU020 A2957

RJTT 132300Z 20025G41KT 1400 R34L///// R22/1000VP1800D R16L/0900VP1800D R23/0700V1800D +SHRA BR FEW004 SCT007 BKN012 18/17 Q1001 TEMPO 2000 +SHRA FEW005 BKN008
RJTT 132307Z 21027G40KT 1000 R34L///// R22/1000VP1800N R16L/0600VP1800D R23/0700VP1800U +SHRA BR FEW004 SCT006 BKN010 18/17 Q1001 RMK 1ST004 4CU006 6CU010 A2958 RI++
RJTT 132324Z 21023G33KT 5000 R34L///// R22/1600VP1800N R16L/0750VP1800U R23/1100VP1800U +SHRA BR FEW005 SCT008 BKN015 18/17 Q1001 RMK 1ST005 3CU008 5CU015 A2957 9999NW-N
132330Z 21023G38KT 7000 SHRA BR FEW005 SCT008 BKN015 18/18 Q1000 TEMPO 2000 +SHRA FEW005 BKN008 RMK 1ST005 3CU008 5CU015 A2955 P/FR BR SE
RJTT 132341Z 20026G37KT 6000 -SHRA FEW005 SCT014 BKN020 18/17 Q1000 RMK 1ST005 4CU014 6CU020 A2953 P/FR

RJTT 140000Z 20027G40KT 9999 -SHRA FEW012 SCT015 BKN020 18/17 Q0999 TEMPO 2000 +SHRA FEW005 BKN008
RJTT 140008Z 19031G46KT 3000 SHRA BR FEW008 SCT014 BKN020 18/17 Q0999 RMK 1ST008 3CU014 5CU020 A2950 P/FR
RJTT 140017Z 18036G46KT 3500 SHRA BR FEW008 SCT014 BKN020 17/17 Q0998 RMK 1ST008 3CU014 6CU020 A2950 P/FR
RJTT 140027Z 19034G47KT 7000 -SHRA FEW007 BKN015 BKN020 18/17 Q0999 RMK 1ST007 5CU015 7CU020 A2950
RJTT 140030Z 19033G44KT 7000 -SHRA FEW007 BKN015 BKN020 18/17 Q0999 TEMPO 2000 +SHRA FEW005 BKN008 RMK 1ST007 5CU015 7CU020 A2951

RJTT 140100Z 20026G37KT 9000 -SHRA FEW008 SCT015 BKN045 18/18 Q0999 TEMPO 3000 SHRA FEW005 BKN008
RJTT 140108Z 20024G36KT 5000 SHRA BR FEW008 BKN014 BKN020 18/17 Q0999 RJTT 140108Z (cont.) RMK 1ST008 5CU014 6CU020 A2951 MOD TURB OBS AT 0059Z ADDUM 11000FT IN DES BY B763
RJTT 140114Z 20025KT 3500 +SHRA BR FEW008 BKN014 BKN020 18/17 Q0999 RMK 1ST008 5CU014 6CU020 A2950
RJTT 140130Z 19024G37KT 7000 -SHRA BR FEW006 SCT015 FEW020CB BKN100 18/17 Q0998 TEMPO 2000 +SHRA FEW005 BKN008 RMK 1ST006 3CU015 1CB020 6AC100 A2949 CB 40KM SW MOV NE BR SE-S
RJTT 140138Z 19025G35KT 7000 SHRA BR FEW007 SCT013 FEW020CB BKN100 18/18 Q0998 RMK 1ST007 4CU013 1CB020 6AC100 A2949 CB 40KM SW MOV NE BR SE
RJTT 140144Z 19025G35KT 7000 -SHRA FEW007 BKN011 FEW020CB BKN100 18/17 Q0998 RMK 1ST007 5CU011 1CB020 7AC100 A2949 CB 35KM SW MOV NE

RJTT 140200Z 20020KT 8000 -TSRA FEW007 SCT011 FEW020CB BKN060 18/17 Q0998 TEMPO 20030G40KT 3000 TSRA FEW005 BKN008 FEW020CB
RJTT 140210Z 19019KT 8000 SHRA FEW008 SCT011 BKN030 18/17 Q0997 RMK 1ST008 3CU011 5CU030 A2946
RJTT 140214Z 19021G31KT 8000 -SHRA FEW008 SCT020 BKN100 18/17 Q0997 RMK 1ST008 3CU020 6AC100 A2946 P/FR
RJTT 140225Z 19026KT 6000 SHRA BR FEW008 SCT030 BKN100 18/17 Q0997 RMK 1ST008 4CU030 6AC100 A2944 P/FR BR SW AND N
RJTT 140234Z 19021G31KT 6000 -SHRA FEW010 SCT030 BKN060 18/18 Q0996 RMK 1ST010 4CU030 6SC060 A2944 P/FR

RJTT 140300Z 20022KT 9000 -SHRA FEW008 SCT030 BKN060 19/18 Q0996 TEMPO 20028G38KT
RJTT 140307Z 20022G33KT 9999 -SHRA FEW010 SCT030 19/18 Q0995 RMK 1ST010 4CU030 A2941
RJTT 140330Z 20021KT 9999 VCSH FEW010 SCT025 20/18 Q0995 TEMPO 20025G35KT RMK 1ST010 4CU025 A2940

RJTT 140400Z 19025KT 9999 FEW015 20/18 Q0994 TEMPO 20025G35KT

支 持 本 站: 捐赠服务器等运维费用,感谢您的支持!